createdAt,value
2017-03-28T00:00:14.629Z,0
2017-03-28T00:01:23.869Z,0
2017-03-28T00:02:33.564Z,0
2017-03-28T00:03:43.112Z,0
2017-03-28T00:04:52.336Z,0
2017-03-28T00:06:01.579Z,0
2017-03-28T00:07:11.449Z,0
2017-03-28T00:08:21.463Z,0
2017-03-28T00:09:31.007Z,0
2017-03-28T00:10:39.905Z,0
2017-03-28T00:11:49.122Z,0
2017-03-28T00:12:58.674Z,0
2017-03-28T00:14:08.467Z,0
2017-03-28T00:15:17.361Z,0
2017-03-28T00:16:26.248Z,0
2017-03-28T00:17:35.788Z,0
2017-03-28T00:18:45.693Z,0
2017-03-28T00:19:55.389Z,0
2017-03-28T00:21:04.281Z,0
2017-03-28T00:22:13.172Z,0
2017-03-28T00:23:22.715Z,0
2017-03-28T00:24:31.930Z,0
2017-03-28T00:25:41.249Z,0
2017-03-28T00:26:51.445Z,0
2017-03-28T00:28:01.314Z,0
2017-03-28T00:29:10.863Z,0
2017-03-28T00:30:20.077Z,0
2017-03-28T00:31:29.117Z,0
2017-03-28T00:32:38.338Z,0
2017-03-28T00:33:48.205Z,0
2017-03-28T00:34:58.073Z,0
2017-03-28T00:36:07.286Z,0
2017-03-28T00:37:16.658Z,0
2017-03-28T00:38:25.884Z,0
2017-03-28T00:39:35.426Z,0
2017-03-28T00:40:44.645Z,0
2017-03-28T00:41:53.858Z,0
2017-03-28T00:43:04.098Z,0
2017-03-28T00:44:13.641Z,0
2017-03-28T00:45:23.177Z,0
2017-03-28T00:46:32.386Z,0
2017-03-28T00:47:42.258Z,0
2017-03-28T00:48:51.953Z,0
2017-03-28T00:50:01.822Z,0
2017-03-28T00:51:11.063Z,0
2017-03-28T00:52:20.282Z,0
2017-03-28T00:53:30.152Z,0
2017-03-28T00:54:39.748Z,0
2017-03-28T00:55:48.635Z,0
2017-03-28T00:56:57.851Z,0
2017-03-28T00:58:07.067Z,0
2017-03-28T00:59:16.277Z,0
2017-03-28T01:00:25.969Z,0
2017-03-28T01:01:35.187Z,0
2017-03-28T01:02:44.405Z,0
2017-03-28T01:03:53.944Z,0
2017-03-28T01:05:03.485Z,0
2017-03-28T01:06:12.625Z,0
2017-03-28T01:07:21.844Z,0
2017-03-28T01:08:31.395Z,0
2017-03-28T01:09:40.931Z,0
2017-03-28T01:10:50.148Z,0
2017-03-28T01:11:59.514Z,0
2017-03-28T01:13:08.731Z,0
2017-03-28T01:14:18.607Z,0
2017-03-28T01:15:27.495Z,0
2017-03-28T01:16:36.386Z,0
2017-03-28T01:17:46.457Z,0
2017-03-28T01:18:55.708Z,0
2017-03-28T01:20:05.246Z,0
2017-03-28T01:21:14.141Z,0
2017-03-28T01:22:23.681Z,0
2017-03-28T01:23:33.640Z,0
2017-03-28T01:24:43.184Z,0
2017-03-28T01:25:52.722Z,0
2017-03-28T01:27:01.611Z,0
2017-03-28T01:28:11.154Z,0
2017-03-28T01:29:21.653Z,0
2017-03-28T01:30:30.879Z,0
2017-03-28T01:31:39.774Z,0
2017-03-28T01:32:49.643Z,0
2017-03-28T01:33:58.858Z,0
2017-03-28T01:35:08.495Z,0
2017-03-28T01:36:17.389Z,0
2017-03-28T01:37:26.926Z,0
2017-03-28T01:38:35.815Z,0
2017-03-28T01:39:45.024Z,0
2017-03-28T01:40:54.342Z,0
2017-03-28T01:42:03.881Z,0
2017-03-28T01:43:13.422Z,0
2017-03-28T01:44:22.965Z,0
2017-03-28T01:45:32.832Z,0
2017-03-28T01:46:42.704Z,0
2017-03-28T01:47:51.936Z,0
2017-03-28T01:49:01.805Z,0
2017-03-28T01:50:11.018Z,0
2017-03-28T01:51:20.230Z,0
2017-03-28T01:52:30.167Z,0
2017-03-28T01:53:39.411Z,0
2017-03-28T01:54:49.288Z,0
2017-03-28T01:55:58.829Z,0
2017-03-28T01:57:08.053Z,0
2017-03-28T01:58:18.296Z,0
2017-03-28T01:59:27.848Z,0
2017-03-28T02:00:37.064Z,0
2017-03-28T02:01:46.278Z,0
2017-03-28T02:02:55.853Z,0
2017-03-28T02:04:05.975Z,0
2017-03-28T02:05:15.190Z,0
2017-03-28T02:06:24.075Z,0
2017-03-28T02:07:32.962Z,0
2017-03-28T02:08:41.855Z,0
2017-03-28T02:09:51.120Z,0
2017-03-28T02:11:00.330Z,0
2017-03-28T02:12:09.214Z,0
2017-03-28T02:13:18.439Z,0
2017-03-28T02:14:27.980Z,0
2017-03-28T02:15:37.245Z,0
2017-03-28T02:16:46.134Z,0
2017-03-28T02:17:55.359Z,0
2017-03-28T02:19:04.903Z,0
2017-03-28T02:20:13.798Z,0
2017-03-28T02:21:23.265Z,0
2017-03-28T02:22:33.136Z,0
2017-03-28T02:23:42.353Z,0
2017-03-28T02:24:51.571Z,0
2017-03-28T02:26:00.460Z,0
2017-03-28T02:27:09.851Z,0
2017-03-28T02:28:19.068Z,0
2017-03-28T02:29:27.961Z,0
2017-03-28T02:30:37.499Z,0
2017-03-28T02:31:46.393Z,0
2017-03-28T02:32:55.761Z,0
2017-03-28T02:34:04.980Z,0
2017-03-28T02:35:14.196Z,0
2017-03-28T02:36:23.407Z,0
2017-03-28T02:37:32.293Z,0
2017-03-28T02:38:41.930Z,0
2017-03-28T02:39:51.143Z,0
2017-03-28T02:41:01.007Z,0
2017-03-28T02:42:09.895Z,0
2017-03-28T02:43:19.442Z,0
2017-03-28T02:44:29.986Z,0
2017-03-28T02:45:38.875Z,0
2017-03-28T02:46:48.736Z,0
2017-03-28T02:47:58.279Z,0
2017-03-28T02:49:08.145Z,0
2017-03-28T02:50:17.407Z,0
2017-03-28T02:51:26.621Z,0
2017-03-28T02:52:36.175Z,0
2017-03-28T02:53:46.040Z,0
2017-03-28T02:54:55.578Z,0
2017-03-28T02:56:05.264Z,0
2017-03-28T02:57:14.805Z,0
2017-03-28T02:58:24.345Z,0
2017-03-28T02:59:33.887Z,0
2017-03-28T03:00:42.774Z,0
2017-03-28T03:01:52.801Z,0
2017-03-28T03:03:02.351Z,0
2017-03-28T03:04:12.216Z,0
2017-03-28T03:05:21.429Z,0
2017-03-28T03:06:30.319Z,0
2017-03-28T03:07:39.910Z,0
2017-03-28T03:08:50.104Z,0
2017-03-28T03:10:00.317Z,0
2017-03-28T03:11:09.203Z,0
2017-03-28T03:12:18.416Z,0
2017-03-28T03:13:28.119Z,0
2017-03-28T03:14:37.679Z,0
2017-03-28T03:15:46.891Z,0
2017-03-28T03:16:55.774Z,0
2017-03-28T03:18:04.989Z,0
2017-03-28T03:19:15.156Z,0
2017-03-28T03:20:24.366Z,0
2017-03-28T03:21:33.574Z,0
2017-03-28T03:22:43.118Z,0
2017-03-28T03:23:52.659Z,0
2017-03-28T03:25:02.208Z,0
2017-03-28T03:26:11.097Z,0
2017-03-28T03:27:19.995Z,0
2017-03-28T03:28:29.866Z,0
2017-03-28T03:29:39.078Z,0
2017-03-28T03:30:49.039Z,0
2017-03-28T03:31:58.253Z,0
2017-03-28T03:33:07.467Z,0
2017-03-28T03:34:17.336Z,0
2017-03-28T03:35:26.552Z,0
2017-03-28T03:36:36.145Z,0
2017-03-28T03:37:45.692Z,0
2017-03-28T03:38:54.911Z,0
2017-03-28T03:40:04.449Z,0
2017-03-28T03:41:13.338Z,0
2017-03-28T03:42:22.631Z,0
2017-03-28T03:43:31.848Z,0
2017-03-28T03:44:41.058Z,0
2017-03-28T03:45:50.271Z,0
2017-03-28T03:46:59.810Z,0
2017-03-28T03:48:10.050Z,0
2017-03-28T03:49:19.917Z,0
2017-03-28T03:50:29.454Z,0
2017-03-28T03:51:38.665Z,0
2017-03-28T03:52:48.223Z,0
2017-03-28T03:53:58.236Z,0
2017-03-28T03:55:08.105Z,0
2017-03-28T03:56:17.320Z,0
2017-03-28T03:57:26.213Z,0
2017-03-28T03:58:36.078Z,0
2017-03-28T03:59:45.346Z,0
2017-03-28T04:00:54.882Z,0
2017-03-28T04:02:04.091Z,0
2017-03-28T04:03:13.302Z,0
2017-03-28T04:04:23.506Z,0
2017-03-28T04:05:32.722Z,0
2017-03-28T04:06:42.261Z,0
2017-03-28T04:07:51.815Z,0
2017-03-28T04:09:01.359Z,0
2017-03-28T04:10:10.898Z,0
2017-03-28T04:11:20.638Z,0
2017-03-28T04:12:29.849Z,0
2017-03-28T04:13:39.393Z,0
2017-03-28T04:14:48.931Z,0
2017-03-28T04:15:57.814Z,0
2017-03-28T04:17:06.846Z,0
2017-03-28T04:18:16.069Z,0
2017-03-28T04:19:25.610Z,0
2017-03-28T04:20:34.500Z,0
2017-03-28T04:21:43.711Z,0
2017-03-28T04:22:53.829Z,0
2017-03-28T04:24:03.702Z,0
2017-03-28T04:25:13.248Z,0
2017-03-28T04:26:23.108Z,0
2017-03-28T04:27:32.319Z,0
2017-03-28T04:28:41.690Z,0
2017-03-28T04:29:51.236Z,0
2017-03-28T04:31:00.124Z,0
2017-03-28T04:32:09.015Z,0
2017-03-28T04:33:18.271Z,0
2017-03-28T04:34:28.289Z,0
2017-03-28T04:35:37.497Z,0
2017-03-28T04:36:46.406Z,0
2017-03-28T04:37:55.626Z,0
2017-03-28T04:39:04.851Z,0
2017-03-28T04:40:14.645Z,0
2017-03-28T04:41:23.539Z,0
2017-03-28T04:42:33.057Z,0
2017-03-28T04:43:42.598Z,0
2017-03-28T04:44:52.297Z,0
2017-03-28T04:46:01.726Z,0
2017-03-28T04:47:11.377Z,0
2017-03-28T04:48:22.793Z,0
2017-03-28T04:49:34.014Z,0
2017-03-28T04:50:43.557Z,0
2017-03-28T04:51:52.520Z,0
2017-03-28T04:53:02.063Z,0
2017-03-28T04:54:11.606Z,0
2017-03-28T04:55:20.823Z,0
2017-03-28T04:56:29.710Z,0
2017-03-28T04:57:40.301Z,0
2017-03-28T04:58:49.887Z,0
2017-03-28T05:00:00.081Z,0
2017-03-28T05:01:08.986Z,5
2017-03-28T05:02:17.878Z,5
2017-03-28T05:03:27.244Z,5
2017-03-28T05:04:36.458Z,5
2017-03-28T05:05:45.995Z,5
2017-03-28T05:06:54.889Z,10
2017-03-28T05:08:03.780Z,10
2017-03-28T05:09:13.757Z,10
2017-03-28T05:10:22.973Z,10
2017-03-28T05:11:31.857Z,15
2017-03-28T05:12:41.721Z,15
2017-03-28T05:13:51.586Z,15
2017-03-28T05:15:01.475Z,20
2017-03-28T05:16:10.359Z,20
2017-03-28T05:17:19.249Z,20
2017-03-28T05:18:28.787Z,25
2017-03-28T05:19:38.656Z,25
2017-03-28T05:20:48.117Z,25
2017-03-28T05:21:57.000Z,30
2017-03-28T05:23:06.868Z,30
2017-03-28T05:24:17.061Z,30
2017-03-28T05:25:26.270Z,35
2017-03-28T05:26:35.636Z,35
2017-03-28T05:27:44.850Z,40
2017-03-28T05:28:54.066Z,40
2017-03-28T05:30:03.304Z,45
2017-03-28T05:31:12.531Z,45
2017-03-28T05:32:22.042Z,45
2017-03-28T05:33:31.907Z,50
2017-03-28T05:34:41.441Z,50
2017-03-28T05:35:50.327Z,55
2017-03-28T05:36:59.537Z,55
2017-03-28T05:38:09.476Z,60
2017-03-28T05:39:19.352Z,60
2017-03-28T05:40:28.242Z,60
2017-03-28T05:41:37.129Z,65
2017-03-28T05:42:46.671Z,65
2017-03-28T05:43:56.260Z,70
2017-03-28T05:45:05.799Z,70
2017-03-28T05:46:14.688Z,70
2017-03-28T05:47:23.901Z,75
2017-03-28T05:48:34.096Z,75
2017-03-28T05:49:44.112Z,75
2017-03-28T05:50:52.993Z,80
2017-03-28T05:52:02.203Z,80
2017-03-28T05:53:11.418Z,80
2017-03-28T05:54:20.635Z,85
2017-03-28T05:55:29.626Z,85
2017-03-28T05:56:38.830Z,85
2017-03-28T05:57:48.367Z,90
2017-03-28T05:58:58.227Z,90
2017-03-28T06:00:07.442Z,90
2017-03-28T06:01:16.753Z,95
2017-03-28T06:02:26.619Z,95
2017-03-28T06:03:36.496Z,95
2017-03-28T06:04:45.710Z,100
2017-03-28T06:05:55.574Z,100
2017-03-28T06:07:04.940Z,100
2017-03-28T06:08:13.824Z,100
2017-03-28T06:09:23.363Z,105
2017-03-28T06:10:32.575Z,105
2017-03-28T06:11:41.456Z,105
2017-03-28T06:12:53.726Z,105
2017-03-28T06:14:03.590Z,105
2017-03-28T06:15:12.799Z,105
2017-03-28T06:16:21.707Z,110
2017-03-28T06:17:31.247Z,110
2017-03-28T06:18:40.885Z,110
2017-03-28T06:19:50.421Z,115
2017-03-28T06:20:59.957Z,115
2017-03-28T06:22:08.845Z,115
2017-03-28T06:23:17.732Z,115
2017-03-28T06:24:27.426Z,120
2017-03-28T06:25:36.962Z,120
2017-03-28T06:26:46.177Z,120
2017-03-28T06:27:55.712Z,120
2017-03-28T06:29:04.929Z,120
2017-03-28T06:30:13.962Z,125
2017-03-28T06:31:22.850Z,125
2017-03-28T06:32:32.064Z,125
2017-03-28T06:33:41.607Z,125
2017-03-28T06:34:50.492Z,125
2017-03-28T06:36:00.228Z,125
2017-03-28T06:37:09.453Z,130
2017-03-28T06:38:19.317Z,130
2017-03-28T06:39:29.187Z,130
2017-03-28T06:40:38.072Z,130
2017-03-28T06:41:47.330Z,130
2017-03-28T06:42:56.542Z,130
2017-03-28T06:44:06.739Z,135
2017-03-28T06:45:15.948Z,135
2017-03-28T06:46:24.832Z,135
2017-03-28T06:47:33.870Z,135
2017-03-28T06:48:43.738Z,135
2017-03-28T06:49:52.959Z,135
2017-03-28T06:51:02.178Z,140
2017-03-28T06:52:11.393Z,140
2017-03-28T06:53:20.630Z,140
2017-03-28T06:54:29.845Z,140
2017-03-28T06:55:39.410Z,140
2017-03-28T06:56:48.295Z,140
2017-03-28T06:57:57.508Z,140
2017-03-28T06:59:06.600Z,140
2017-03-28T07:00:15.488Z,145
2017-03-28T07:01:24.372Z,145
2017-03-28T07:02:33.586Z,145
2017-03-28T07:03:43.125Z,145
2017-03-28T07:04:52.588Z,145
2017-03-28T07:06:01.798Z,145
2017-03-28T07:07:10.687Z,145
2017-03-28T07:08:20.223Z,145
2017-03-28T07:09:29.113Z,145
2017-03-28T07:10:38.478Z,150
2017-03-28T07:11:47.694Z,150
2017-03-28T07:12:56.584Z,150
2017-03-28T07:14:06.154Z,150
2017-03-28T07:15:15.728Z,150
2017-03-28T07:16:25.291Z,150
2017-03-28T07:17:34.833Z,150
2017-03-28T07:18:44.702Z,150
2017-03-28T07:19:54.584Z,150
2017-03-28T07:21:03.471Z,150
2017-03-28T07:22:12.511Z,155
2017-03-28T07:23:22.053Z,155
2017-03-28T07:24:31.268Z,155
2017-03-28T07:25:40.159Z,155
2017-03-28T07:26:49.046Z,155
2017-03-28T07:27:58.590Z,155
2017-03-28T07:29:08.133Z,155
2017-03-28T07:30:17.346Z,155
2017-03-28T07:31:26.559Z,155
2017-03-28T07:32:36.423Z,160
2017-03-28T07:33:45.788Z,160
2017-03-28T07:34:55.333Z,160
2017-03-28T07:36:04.543Z,160
2017-03-28T07:37:14.106Z,160
2017-03-28T07:38:24.302Z,160
2017-03-28T07:39:33.989Z,160
2017-03-28T07:40:43.202Z,160
2017-03-28T07:41:52.092Z,160
2017-03-28T07:43:01.973Z,160
2017-03-28T07:44:11.841Z,160
2017-03-28T07:45:21.264Z,160
2017-03-28T07:46:30.477Z,165
2017-03-28T07:47:39.364Z,165
2017-03-28T07:48:49.227Z,165
2017-03-28T07:49:59.106Z,165
2017-03-28T07:51:08.696Z,165
2017-03-28T07:52:18.233Z,165
2017-03-28T07:53:27.794Z,165
2017-03-28T07:54:37.014Z,165
2017-03-28T07:55:45.913Z,165
2017-03-28T07:56:55.174Z,165
2017-03-28T07:58:04.383Z,165
2017-03-28T07:59:13.922Z,165
2017-03-28T08:00:23.136Z,165
2017-03-28T08:01:32.031Z,170
2017-03-28T08:02:41.758Z,170
2017-03-28T08:03:51.954Z,170
2017-03-28T08:05:01.165Z,170
2017-03-28T08:06:10.377Z,170
2017-03-28T08:07:19.264Z,170
2017-03-28T08:08:28.631Z,170
2017-03-28T08:09:37.518Z,170
2017-03-28T08:10:46.409Z,170
2017-03-28T08:11:55.952Z,170
2017-03-28T08:13:05.509Z,170
2017-03-28T08:14:14.880Z,170
2017-03-28T08:15:24.097Z,170
2017-03-28T08:16:33.318Z,170
2017-03-28T08:17:42.866Z,170
2017-03-28T08:18:52.408Z,170
2017-03-28T08:20:02.353Z,170
2017-03-28T08:21:11.566Z,175
2017-03-28T08:22:20.456Z,175
2017-03-28T08:23:29.346Z,175
2017-03-28T08:24:38.235Z,175
2017-03-28T08:25:47.323Z,175
2017-03-28T08:26:56.534Z,175
2017-03-28T08:28:05.758Z,175
2017-03-28T08:29:14.975Z,175
2017-03-28T08:30:24.509Z,175
2017-03-28T08:31:33.877Z,180
2017-03-28T08:32:43.421Z,180
2017-03-28T08:33:52.313Z,180
2017-03-28T08:35:01.858Z,180
2017-03-28T08:36:11.403Z,180
2017-03-28T08:37:20.770Z,180
2017-03-28T08:38:29.981Z,180
2017-03-28T08:39:38.868Z,180
2017-03-28T08:40:47.756Z,180
2017-03-28T08:41:57.299Z,185
2017-03-28T08:43:07.097Z,185
2017-03-28T08:44:16.961Z,185
2017-03-28T08:45:26.173Z,185
2017-03-28T08:46:36.036Z,185
2017-03-28T08:47:45.256Z,185
2017-03-28T08:48:54.859Z,185
2017-03-28T08:50:04.405Z,185
2017-03-28T08:51:13.300Z,185
2017-03-28T08:52:22.517Z,185
2017-03-28T08:53:31.736Z,190
2017-03-28T08:54:40.829Z,190
2017-03-28T08:55:49.719Z,190
2017-03-28T08:56:58.947Z,190
2017-03-28T08:58:08.504Z,190
2017-03-28T08:59:17.401Z,190
2017-03-28T09:00:27.146Z,190
2017-03-28T09:01:36.364Z,190
2017-03-28T09:02:45.909Z,190
2017-03-28T09:03:55.457Z,190
2017-03-28T09:05:04.356Z,195
2017-03-28T09:06:13.773Z,195
2017-03-28T09:07:22.670Z,195
2017-03-28T09:08:31.562Z,195
2017-03-28T09:09:41.107Z,195
2017-03-28T09:10:50.322Z,195
2017-03-28T09:11:59.620Z,195
2017-03-28T09:13:09.159Z,195
2017-03-28T09:14:18.050Z,195
2017-03-28T09:15:26.947Z,200
2017-03-28T09:16:36.189Z,200
2017-03-28T09:17:45.892Z,200
2017-03-28T09:18:54.786Z,200
2017-03-28T09:20:04.327Z,200
2017-03-28T09:21:13.220Z,200
2017-03-28T09:22:22.108Z,200
2017-03-28T09:23:31.705Z,205
2017-03-28T09:24:40.602Z,205
2017-03-28T09:25:49.821Z,205
2017-03-28T09:26:59.040Z,205
2017-03-28T09:28:08.585Z,205
2017-03-28T09:29:18.479Z,205
2017-03-28T09:30:27.369Z,205
2017-03-28T09:31:36.263Z,205
2017-03-28T09:32:45.488Z,205
2017-03-28T09:33:55.359Z,210
2017-03-28T09:35:05.110Z,210
2017-03-28T09:36:14.652Z,210
2017-03-28T09:37:24.196Z,210
2017-03-28T09:38:33.412Z,210
2017-03-28T09:39:42.313Z,210
2017-03-28T09:40:51.635Z,210
2017-03-28T09:42:00.555Z,210
2017-03-28T09:43:09.448Z,210
2017-03-28T09:44:18.343Z,210
2017-03-28T09:45:27.560Z,210
2017-03-28T09:46:36.605Z,215
2017-03-28T09:47:45.819Z,215
2017-03-28T09:48:54.712Z,215
2017-03-28T09:50:04.588Z,215
2017-03-28T09:51:13.487Z,215
2017-03-28T09:52:22.481Z,215
2017-03-28T09:53:32.351Z,215
2017-03-28T09:54:42.227Z,215
2017-03-28T09:55:51.115Z,220
2017-03-28T09:57:00.652Z,220
2017-03-28T09:58:09.934Z,220
2017-03-28T09:59:19.809Z,220
2017-03-28T10:00:28.702Z,225
2017-03-28T10:01:37.603Z,225
2017-03-28T10:02:47.152Z,225
2017-03-28T10:03:56.955Z,225
2017-03-28T10:05:06.824Z,225
2017-03-28T10:06:16.047Z,230
2017-03-28T10:07:24.946Z,230
2017-03-28T10:08:34.497Z,230
2017-03-28T10:09:44.147Z,230
2017-03-28T10:10:53.365Z,230
2017-03-28T10:12:02.266Z,230
2017-03-28T10:13:11.491Z,230
2017-03-28T10:14:20.713Z,235
2017-03-28T10:15:30.611Z,240
2017-03-28T10:16:39.831Z,235
2017-03-28T10:17:49.077Z,235
2017-03-28T10:18:58.300Z,235
2017-03-28T10:20:07.849Z,235
2017-03-28T10:21:17.043Z,240
2017-03-28T10:22:26.263Z,240
2017-03-28T10:23:35.167Z,240
2017-03-28T10:24:44.062Z,240
2017-03-28T10:25:52.958Z,245
2017-03-28T10:27:02.330Z,245
2017-03-28T10:28:11.547Z,245
2017-03-28T10:29:20.761Z,250
2017-03-28T10:30:29.658Z,250
2017-03-28T10:31:38.878Z,250
2017-03-28T10:32:48.251Z,250
2017-03-28T10:33:57.790Z,255
2017-03-28T10:35:07.018Z,255
2017-03-28T10:36:16.562Z,255
2017-03-28T10:37:25.776Z,255
2017-03-28T10:38:34.819Z,255
2017-03-28T10:39:44.373Z,260
2017-03-28T10:40:53.590Z,260
2017-03-28T10:42:03.129Z,260
2017-03-28T10:43:12.359Z,260
2017-03-28T10:44:21.737Z,260
2017-03-28T10:45:30.957Z,265
2017-03-28T10:46:39.850Z,265
2017-03-28T10:47:49.725Z,265
2017-03-28T10:48:59.593Z,265
2017-03-28T10:50:08.967Z,265
2017-03-28T10:51:18.513Z,270
2017-03-28T10:52:27.410Z,270
2017-03-28T10:53:36.306Z,270
2017-03-28T10:54:45.202Z,270
2017-03-28T10:55:54.494Z,275
2017-03-28T10:57:04.040Z,275
2017-03-28T10:58:13.283Z,275
2017-03-28T10:59:22.517Z,280
2017-03-28T11:00:31.744Z,280
2017-03-28T11:01:40.887Z,280
2017-03-28T11:02:50.759Z,285
2017-03-28T11:03:59.653Z,280
2017-03-28T11:05:08.554Z,285
2017-03-28T11:06:17.456Z,285
2017-03-28T11:07:26.923Z,285
2017-03-28T11:08:36.472Z,290
2017-03-28T11:09:45.692Z,290
2017-03-28T11:10:54.916Z,290
2017-03-28T11:12:04.129Z,295
2017-03-28T11:13:13.177Z,295
2017-03-28T11:14:22.404Z,300
2017-03-28T11:15:31.648Z,300
2017-03-28T11:16:40.876Z,295
2017-03-28T11:17:50.758Z,300
2017-03-28T11:19:00.513Z,300
2017-03-28T11:20:09.737Z,305
2017-03-28T11:21:18.633Z,305
2017-03-28T11:22:27.529Z,305
2017-03-28T11:23:37.399Z,310
2017-03-28T11:24:46.995Z,310
2017-03-28T11:25:56.216Z,310
2017-03-28T11:27:05.112Z,315
2017-03-28T11:28:14.658Z,315
2017-03-28T11:29:23.881Z,315
2017-03-28T11:30:33.751Z,315
2017-03-28T11:31:43.295Z,315
2017-03-28T11:32:52.851Z,325
2017-03-28T11:34:02.406Z,320
2017-03-28T11:35:11.635Z,330
2017-03-28T11:36:21.706Z,325
2017-03-28T11:37:30.604Z,325
2017-03-28T11:38:39.830Z,330
2017-03-28T11:39:49.709Z,330
2017-03-28T11:40:59.249Z,330
2017-03-28T11:42:09.591Z,335
2017-03-28T11:43:19.138Z,335
2017-03-28T11:44:28.692Z,340
2017-03-28T11:45:37.912Z,340
2017-03-28T11:46:47.162Z,345
2017-03-28T11:47:56.858Z,345
2017-03-28T11:49:06.737Z,350
2017-03-28T11:50:15.635Z,350
2017-03-28T11:51:24.536Z,355
2017-03-28T11:52:34.091Z,355
2017-03-28T11:53:43.789Z,360
2017-03-28T11:54:53.337Z,370
2017-03-28T11:56:02.558Z,375
2017-03-28T11:57:11.456Z,375
2017-03-28T11:58:20.679Z,385
2017-03-28T11:59:30.601Z,400
2017-03-28T12:00:39.495Z,425
2017-03-28T12:01:48.717Z,1485
2017-03-28T12:02:58.590Z,2615
2017-03-28T12:04:07.815Z,2645
2017-03-28T12:05:17.289Z,2755
2017-03-28T12:06:26.187Z,2920
2017-03-28T12:07:35.407Z,2690
2017-03-28T12:08:44.307Z,2655
2017-03-28T12:09:53.525Z,2975
2017-03-28T12:11:02.902Z,2870
2017-03-28T12:12:12.125Z,2855
2017-03-28T12:13:21.019Z,2990
2017-03-28T12:14:30.243Z,2940
2017-03-28T12:15:39.157Z,2550
2017-03-28T12:16:48.110Z,2380
2017-03-28T12:17:57.008Z,2005
2017-03-28T12:19:06.232Z,1825
2017-03-28T12:20:15.137Z,2215
2017-03-28T12:21:24.365Z,1925
2017-03-28T12:22:33.674Z,1480
2017-03-28T12:23:42.578Z,1890
2017-03-28T12:24:51.480Z,2580
2017-03-28T12:26:00.709Z,1805
2017-03-28T12:27:09.944Z,1420
2017-03-28T12:28:19.000Z,1925
2017-03-28T12:29:27.903Z,2505
2017-03-28T12:30:37.780Z,1275
2017-03-28T12:31:47.009Z,1615
2017-03-28T12:32:55.914Z,1955
2017-03-28T12:34:04.974Z,2560
2017-03-28T12:35:14.200Z,2140
2017-03-28T12:36:23.455Z,1945
2017-03-28T12:37:32.357Z,2025
2017-03-28T12:38:41.261Z,1700
2017-03-28T12:39:50.367Z,985
2017-03-28T12:40:59.593Z,1420
2017-03-28T12:42:08.499Z,1260
2017-03-28T12:43:17.735Z,1290
2017-03-28T12:44:26.641Z,2390
2017-03-28T12:45:35.595Z,2530
2017-03-28T12:46:44.494Z,2860
2017-03-28T12:47:53.720Z,2115
2017-03-28T12:49:02.957Z,1680
2017-03-28T12:50:11.867Z,1995
2017-03-28T12:51:20.906Z,1890
2017-03-28T12:52:30.461Z,2020
2017-03-28T12:53:39.368Z,1940
2017-03-28T12:54:48.921Z,1730
2017-03-28T12:55:57.824Z,2105
2017-03-28T12:57:07.131Z,1790
2017-03-28T12:58:16.038Z,1025
2017-03-28T12:59:24.946Z,1585
2017-03-28T13:00:34.175Z,1315
2017-03-28T13:01:43.079Z,1505
2017-03-28T13:02:52.135Z,1620
2017-03-28T13:04:01.410Z,655
2017-03-28T13:05:10.314Z,765
2017-03-28T13:06:19.221Z,1010
2017-03-28T13:07:28.121Z,1675
2017-03-28T13:08:37.751Z,2605
2017-03-28T13:09:46.656Z,2375
2017-03-28T13:10:55.555Z,1715
2017-03-28T13:12:04.458Z,1835
2017-03-28T13:13:13.366Z,1500
2017-03-28T13:14:22.591Z,1165
2017-03-28T13:15:31.492Z,1640
2017-03-28T13:16:40.453Z,2205
2017-03-28T13:17:49.709Z,2270
2017-03-28T13:18:58.945Z,2200
2017-03-28T13:20:07.854Z,1530
2017-03-28T13:21:16.759Z,825
2017-03-28T13:22:25.664Z,1120
2017-03-28T13:23:34.566Z,1440
2017-03-28T13:24:43.472Z,1540
2017-03-28T13:25:52.427Z,730
2017-03-28T13:27:01.652Z,910
2017-03-28T13:28:10.554Z,1060
2017-03-28T13:29:19.778Z,1735
2017-03-28T13:30:29.016Z,875
2017-03-28T13:31:38.292Z,720
2017-03-28T13:32:47.201Z,1170
2017-03-28T13:33:56.439Z,1810
2017-03-28T13:35:05.344Z,2095
2017-03-28T13:36:14.245Z,2240
2017-03-28T13:37:23.623Z,2400
2017-03-28T13:38:32.852Z,2385
2017-03-28T13:39:41.755Z,2245
2017-03-28T13:40:50.663Z,1810
2017-03-28T13:41:59.571Z,1770
2017-03-28T13:43:08.627Z,1885
2017-03-28T13:44:17.533Z,2655
2017-03-28T13:45:26.440Z,2415
2017-03-28T13:46:35.671Z,2525
2017-03-28T13:47:44.576Z,2615
2017-03-28T13:48:54.263Z,2090
2017-03-28T13:50:03.821Z,1155
2017-03-28T13:51:12.725Z,2140
2017-03-28T13:52:22.626Z,1900
2017-03-28T13:53:31.860Z,1625
2017-03-28T13:54:41.249Z,2245
2017-03-28T13:55:50.488Z,2175
2017-03-28T13:56:59.394Z,2275
2017-03-28T13:58:08.297Z,2560
2017-03-28T13:59:17.525Z,2525
2017-03-28T14:00:26.809Z,1665
2017-03-28T14:01:35.715Z,1565
2017-03-28T14:02:44.616Z,2105
2017-03-28T14:03:53.842Z,2575
2017-03-28T14:05:03.091Z,2450
2017-03-28T14:06:12.000Z,2735
2017-03-28T14:07:21.226Z,2910
2017-03-28T14:08:30.131Z,2980
2017-03-28T14:09:39.359Z,3050
2017-03-28T14:10:48.273Z,3015
2017-03-28T14:11:57.186Z,3125
2017-03-28T14:13:06.101Z,2945
2017-03-28T14:14:15.013Z,2960
2017-03-28T14:15:23.921Z,2970
2017-03-28T14:16:32.828Z,2995
2017-03-28T14:17:42.220Z,2960
2017-03-28T14:18:51.459Z,2860
2017-03-28T14:20:00.371Z,3445
2017-03-28T14:21:09.282Z,3800
2017-03-28T14:22:18.840Z,2930
2017-03-28T14:23:28.127Z,2640
2017-03-28T14:24:37.035Z,3095
2017-03-28T14:25:45.950Z,3280
2017-03-28T14:26:55.193Z,2640
2017-03-28T14:28:04.100Z,2940
2017-03-28T14:29:13.388Z,2860
2017-03-28T14:30:22.301Z,2795
2017-03-28T14:31:31.536Z,2675
2017-03-28T14:32:40.449Z,2780
2017-03-28T14:33:49.356Z,2600
2017-03-28T14:34:58.592Z,2630
2017-03-28T14:36:07.506Z,2755
2017-03-28T14:37:17.067Z,2630
2017-03-28T14:38:26.305Z,2655
2017-03-28T14:39:35.236Z,2735
2017-03-28T14:40:44.623Z,2690
2017-03-28T14:41:53.857Z,2400
2017-03-28T14:43:03.096Z,2470
2017-03-28T14:44:12.331Z,2575
2017-03-28T14:45:21.246Z,2585
2017-03-28T14:46:30.638Z,2635
2017-03-28T14:47:39.578Z,2390
2017-03-28T14:48:48.495Z,2310
2017-03-28T14:49:58.106Z,2200
2017-03-28T14:51:07.023Z,2200
2017-03-28T14:52:16.360Z,1990
2017-03-28T14:53:25.283Z,1915
2017-03-28T14:54:34.521Z,1870
2017-03-28T14:55:43.753Z,1675
2017-03-28T14:56:52.993Z,1845
2017-03-28T14:58:02.051Z,1600
2017-03-28T14:59:10.963Z,1435
2017-03-28T15:00:20.527Z,1660
2017-03-28T15:01:29.435Z,1165
2017-03-28T15:02:38.668Z,875
2017-03-28T15:03:48.378Z,1220
2017-03-28T15:04:57.286Z,1285
2017-03-28T15:06:06.208Z,885
2017-03-28T15:07:15.766Z,810
2017-03-28T15:08:24.670Z,1155
2017-03-28T15:09:34.065Z,1305
2017-03-28T15:10:43.297Z,1605
2017-03-28T15:11:52.206Z,1255
2017-03-28T15:13:01.114Z,1100
2017-03-28T15:14:10.024Z,1130
2017-03-28T15:15:20.060Z,1565
2017-03-28T15:16:29.306Z,1680
2017-03-28T15:17:38.879Z,1645
2017-03-28T15:18:47.786Z,1660
2017-03-28T15:19:56.697Z,1260
2017-03-28T15:21:06.031Z,1155
2017-03-28T15:22:14.950Z,1395
2017-03-28T15:23:24.182Z,2005
2017-03-28T15:24:33.095Z,2020
2017-03-28T15:25:42.003Z,2005
2017-03-28T15:26:51.387Z,1730
2017-03-28T15:28:00.625Z,1595
2017-03-28T15:29:10.182Z,1675
2017-03-28T15:30:19.092Z,1720
2017-03-28T15:31:27.998Z,1960
2017-03-28T15:32:37.053Z,1615
2017-03-28T15:33:45.963Z,1825
2017-03-28T15:34:55.515Z,1850
2017-03-28T15:36:04.747Z,1920
2017-03-28T15:37:14.335Z,1895
2017-03-28T15:38:23.396Z,1940
2017-03-28T15:39:32.624Z,1900
2017-03-28T15:40:41.530Z,1760
2017-03-28T15:41:50.766Z,1795
2017-03-28T15:42:59.675Z,1850
2017-03-28T15:44:08.891Z,1880
2017-03-28T15:45:18.129Z,1845
2017-03-28T15:46:27.363Z,1885
2017-03-28T15:47:36.273Z,1855
2017-03-28T15:48:45.184Z,1745
2017-03-28T15:49:54.349Z,1755
2017-03-28T15:51:03.585Z,1795
2017-03-28T15:52:12.517Z,1745
2017-03-28T15:53:21.430Z,1575
2017-03-28T15:54:30.348Z,1510
2017-03-28T15:55:40.156Z,1590
2017-03-28T15:56:49.066Z,1595
2017-03-28T15:57:57.973Z,1515
2017-03-28T15:59:06.880Z,1505
2017-03-28T16:00:15.795Z,1505
2017-03-28T16:01:25.408Z,1550
2017-03-28T16:02:34.638Z,1580
2017-03-28T16:03:43.540Z,1550
2017-03-28T16:04:52.452Z,1515
2017-03-28T16:06:01.688Z,1450
2017-03-28T16:07:11.600Z,1140
2017-03-28T16:08:20.829Z,1225